createdAt,value
2018-02-25T00:00:38.434Z,-3.48
2018-02-25T00:01:38.694Z,-3.55
2018-02-25T00:02:38.446Z,-3.59
2018-02-25T00:03:38.459Z,-3.78
2018-02-25T00:04:38.731Z,-3.55
2018-02-25T00:05:38.728Z,-3.58
2018-02-25T00:06:38.746Z,-3.51
2018-02-25T00:07:38.750Z,-3.46
2018-02-25T00:08:38.497Z,-3.51
2018-02-25T00:09:38.763Z,-3.45
2018-02-25T00:10:38.821Z,-3.48
2018-02-25T00:11:38.536Z,-3.46
2018-02-25T00:12:38.797Z,-3.58
2018-02-25T00:13:38.859Z,-3.58
2018-02-25T00:14:38.807Z,-3.52
2018-02-25T00:15:38.309Z,-3.64
2018-02-25T00:16:38.566Z,-3.8
2018-02-25T00:17:38.842Z,-3.74
2018-02-25T00:18:38.944Z,-3.82
2018-02-25T00:19:38.850Z,-3.78
2018-02-25T00:20:38.606Z,-3.8
2018-02-25T00:21:38.615Z,-3.8
2018-02-25T00:22:38.624Z,-3.77
2018-02-25T00:23:38.880Z,-3.85
2018-02-25T00:24:38.897Z,-3.78
2018-02-25T00:25:38.696Z,-3.89
2018-02-25T00:26:38.658Z,-3.88
2018-02-25T00:27:38.920Z,-3.69
2018-02-25T00:28:38.929Z,-3.83
2018-02-25T00:29:38.936Z,-3.67
2018-02-25T00:30:38.798Z,-3.7
2018-02-25T00:31:38.444Z,-3.64
2018-02-25T00:32:38.709Z,-3.66
2018-02-25T00:33:38.973Z,-3.7
2018-02-25T00:34:38.980Z,-3.82
2018-02-25T00:35:38.986Z,-3.74
2018-02-25T00:36:38.740Z,-3.98
2018-02-25T00:37:38.497Z,-4.06
2018-02-25T00:38:38.755Z,-3.93
2018-02-25T00:39:38.765Z,-3.83
2018-02-25T00:40:38.824Z,-3.96
2018-02-25T00:41:38.787Z,-3.91
2018-02-25T00:42:38.788Z,-3.98
2018-02-25T00:43:39.059Z,-3.93
2018-02-25T00:44:39.062Z,-3.82
2018-02-25T00:45:39.070Z,-3.98
2018-02-25T00:46:39.089Z,-4.25
2018-02-25T00:47:39.083Z,-4.21
2018-02-25T00:48:38.840Z,-4.17
2018-02-25T00:49:39.105Z,-4.17
2018-02-25T00:50:39.118Z,-4.24
2018-02-25T00:51:38.872Z,-4.3
2018-02-25T00:52:39.146Z,-4.22
2018-02-25T00:53:38.629Z,-4.17
2018-02-25T00:54:38.892Z,-4.24
2018-02-25T00:55:39.204Z,-4.28
2018-02-25T00:56:38.909Z,-4.34
2018-02-25T00:57:39.169Z,-4.3
2018-02-25T00:58:39.175Z,-4.39
2018-02-25T00:59:39.195Z,-4.28
2018-02-25T01:00:38.950Z,-4.28
2018-02-25T01:01:38.696Z,-4.22
2018-02-25T01:02:39.208Z,-4.2
2018-02-25T01:03:39.227Z,-4.24
2018-02-25T01:04:39.228Z,-4.22
2018-02-25T01:05:38.986Z,-4.2
2018-02-25T01:06:38.989Z,-4.38
2018-02-25T01:07:39.250Z,-4.3
2018-02-25T01:08:39.260Z,-4.35
2018-02-25T01:09:38.761Z,-4.28
2018-02-25T01:10:39.024Z,-4.22
2018-02-25T01:11:39.294Z,-4.28
2018-02-25T01:12:39.299Z,-4.41
2018-02-25T01:13:39.301Z,-4.27
2018-02-25T01:14:38.803Z,-4.2
2018-02-25T01:15:39.327Z,-4.27
2018-02-25T01:16:39.074Z,-4.31
2018-02-25T01:17:39.086Z,-4.38
2018-02-25T01:18:39.357Z,-4.3
2018-02-25T01:19:39.351Z,-4.35
2018-02-25T01:20:39.107Z,-4.22
2018-02-25T01:21:39.371Z,-4.32
2018-02-25T01:22:39.383Z,-4.63
2018-02-25T01:23:38.877Z,-4.52
2018-02-25T01:24:39.395Z,-4.79
2018-02-25T01:25:39.433Z,-4.7
2018-02-25T01:26:39.408Z,-4.67
2018-02-25T01:27:39.419Z,-4.81
2018-02-25T01:28:39.474Z,-4.67
2018-02-25T01:29:39.436Z,-4.67
2018-02-25T01:30:39.470Z,-4.53
2018-02-25T01:31:39.453Z,-4.71
2018-02-25T01:32:39.456Z,-4.69
2018-02-25T01:33:39.210Z,-4.77
2018-02-25T01:34:39.224Z,-4.7
2018-02-25T01:35:39.482Z,-4.82
2018-02-25T01:36:38.987Z,-4.7
2018-02-25T01:37:39.500Z,-4.71
2018-02-25T01:38:39.563Z,-4.85
2018-02-25T01:39:39.262Z,-4.87
2018-02-25T01:40:39.268Z,-4.85
2018-02-25T01:41:39.527Z,-4.77
2018-02-25T01:42:39.535Z,-4.89
2018-02-25T01:43:39.548Z,-4.85
2018-02-25T01:44:39.349Z,-4.82
2018-02-25T01:45:39.561Z,-4.91
2018-02-25T01:46:39.321Z,-4.92
2018-02-25T01:47:39.579Z,-4.82
2018-02-25T01:48:39.334Z,-4.79
2018-02-25T01:49:39.085Z,-4.84
2018-02-25T01:50:39.604Z,-4.81
2018-02-25T01:51:39.611Z,-4.79
2018-02-25T01:52:39.364Z,-4.87
2018-02-25T01:53:39.630Z,-5.03
2018-02-25T01:54:39.635Z,-4.87
2018-02-25T01:55:39.644Z,-4.87
2018-02-25T01:56:39.400Z,-4.92
2018-02-25T01:57:39.662Z,-4.95
2018-02-25T01:58:39.674Z,-4.95
2018-02-25T01:59:39.721Z,-4.96
2018-02-25T02:00:39.684Z,-4.91
2018-02-25T02:01:39.696Z,-5
2018-02-25T02:02:39.706Z,-5.09
2018-02-25T02:03:39.448Z,-4.96
2018-02-25T02:04:39.456Z,-5.06
2018-02-25T02:05:39.721Z,-5.18
2018-02-25T02:06:39.218Z,-5.09
2018-02-25T02:07:39.737Z,-5.21
2018-02-25T02:08:39.495Z,-5.17
2018-02-25T02:09:39.775Z,-5.27
2018-02-25T02:10:39.758Z,-5.18
2018-02-25T02:11:39.509Z,-5.18
2018-02-25T02:12:39.516Z,-5.06
2018-02-25T02:13:39.779Z,-5.13
2018-02-25T02:14:39.834Z,-5.21
2018-02-25T02:15:39.797Z,-5.21
2018-02-25T02:16:39.553Z,-5.24
2018-02-25T02:17:39.558Z,-5.13
2018-02-25T02:18:39.562Z,-5.17
2018-02-25T02:19:39.569Z,-5.13
2018-02-25T02:20:39.581Z,-5.17
2018-02-25T02:21:39.344Z,-5.25
2018-02-25T02:22:39.339Z,-5.18
2018-02-25T02:23:39.608Z,-5.17
2018-02-25T02:24:39.863Z,-5.33
2018-02-25T02:25:39.617Z,-5.28
2018-02-25T02:26:39.878Z,-5.25
2018-02-25T02:27:39.382Z,-5.17
2018-02-25T02:28:39.895Z,-5.08
2018-02-25T02:29:39.900Z,-5.17
2018-02-25T02:30:39.969Z,-5.21
2018-02-25T02:31:39.672Z,-5.18
2018-02-25T02:32:39.924Z,-5.22
2018-02-25T02:33:39.943Z,-5.33
2018-02-25T02:34:39.944Z,-5.36
2018-02-25T02:35:39.948Z,-5.4
2018-02-25T02:36:39.447Z,-5.29
2018-02-25T02:37:39.965Z,-5.28
2018-02-25T02:38:39.974Z,-5.24
2018-02-25T02:39:39.984Z,-5.33
2018-02-25T02:40:39.991Z,-5.22
2018-02-25T02:41:39.748Z,-5.24
2018-02-25T02:42:40.002Z,-5.31
2018-02-25T02:43:40.004Z,-5.28
2018-02-25T02:44:40.033Z,-5.36
2018-02-25T02:45:39.818Z,-5.38
2018-02-25T02:46:40.054Z,-5.29
2018-02-25T02:47:39.790Z,-5.36
2018-02-25T02:48:40.040Z,-5.24
2018-02-25T02:49:40.052Z,-5.13
2018-02-25T02:50:40.069Z,-5.22
2018-02-25T02:51:39.555Z,-5.21
2018-02-25T02:52:39.824Z,-5.29
2018-02-25T02:53:40.089Z,-5.33
2018-02-25T02:54:40.094Z,-5.42
2018-02-25T02:55:40.105Z,-5.27
2018-02-25T02:56:40.110Z,-5.24
2018-02-25T02:57:40.112Z,-5.33
2018-02-25T02:58:39.878Z,-5.39
2018-02-25T02:59:40.131Z,-5.4
2018-02-25T03:00:39.934Z,-5.43
2018-02-25T03:01:39.889Z,-5.43
2018-02-25T03:02:40.148Z,-5.43
2018-02-25T03:03:39.652Z,-5.29
2018-02-25T03:04:40.180Z,-5.24
2018-02-25T03:05:40.175Z,-5.43
2018-02-25T03:06:39.927Z,-5.35
2018-02-25T03:07:40.202Z,-5.31
2018-02-25T03:08:39.944Z,-5.47
2018-02-25T03:09:40.214Z,-5.35
2018-02-25T03:10:40.209Z,-5.38
2018-02-25T03:11:39.962Z,-5.31
2018-02-25T03:12:40.227Z,-5.46
2018-02-25T03:13:39.977Z,-5.49
2018-02-25T03:14:40.240Z,-5.43
2018-02-25T03:15:40.300Z,-5.45
2018-02-25T03:16:40.001Z,-5.39
2018-02-25T03:17:40.372Z,-5.36
2018-02-25T03:18:40.035Z,-5.31
2018-02-25T03:19:39.769Z,-5.35
2018-02-25T03:20:40.281Z,-5.29
2018-02-25T03:21:40.039Z,-5.39
2018-02-25T03:22:40.300Z,-5.39
2018-02-25T03:23:40.052Z,-5.49
2018-02-25T03:24:40.313Z,-5.46
2018-02-25T03:25:40.324Z,-5.47
2018-02-25T03:26:40.076Z,-5.47
2018-02-25T03:27:40.346Z,-5.67
2018-02-25T03:28:40.342Z,-5.6
2018-02-25T03:29:40.098Z,-5.6
2018-02-25T03:30:40.363Z,-5.46
2018-02-25T03:31:40.164Z,-5.63
2018-02-25T03:32:40.375Z,-5.61
2018-02-25T03:33:40.160Z,-5.6
2018-02-25T03:34:40.394Z,-5.6
2018-02-25T03:35:40.393Z,-5.67
2018-02-25T03:36:40.150Z,-5.74
2018-02-25T03:37:40.152Z,-5.76
2018-02-25T03:38:40.159Z,-5.64
2018-02-25T03:39:40.428Z,-5.66
2018-02-25T03:40:40.440Z,-5.53
2018-02-25T03:41:40.445Z,-5.74
2018-02-25T03:42:40.448Z,-5.81
2018-02-25T03:43:40.452Z,-5.81
2018-02-25T03:44:39.955Z,-5.75
2018-02-25T03:45:40.471Z,-5.74
2018-02-25T03:46:40.020Z,-5.85
2018-02-25T03:47:39.978Z,-5.71
2018-02-25T03:48:40.499Z,-5.71
2018-02-25T03:49:40.504Z,-5.72
2018-02-25T03:50:40.266Z,-5.67
2018-02-25T03:51:40.007Z,-5.61
2018-02-25T03:52:40.268Z,-5.64
2018-02-25T03:53:40.533Z,-5.63
2018-02-25T03:54:40.281Z,-5.74
2018-02-25T03:55:40.286Z,-5.68
2018-02-25T03:56:40.294Z,-5.81
2018-02-25T03:57:40.310Z,-5.71
2018-02-25T03:58:40.055Z,-5.75
2018-02-25T03:59:40.320Z,-5.85
2018-02-25T04:00:40.072Z,-5.97
2018-02-25T04:01:40.635Z,-5.96
2018-02-25T04:02:40.090Z,-5.92
2018-02-25T04:03:40.605Z,-5.95
2018-02-25T04:04:40.360Z,-5.85
2018-02-25T04:05:40.362Z,-5.81
2018-02-25T04:06:40.113Z,-5.79
2018-02-25T04:07:40.631Z,-6.1
2018-02-25T04:08:40.127Z,-5.93
2018-02-25T04:09:40.388Z,-6
2018-02-25T04:10:40.651Z,-5.9
2018-02-25T04:11:40.412Z,-5.85
2018-02-25T04:12:40.411Z,-5.95
2018-02-25T04:13:40.165Z,-5.84
2018-02-25T04:14:40.426Z,-5.81
2018-02-25T04:15:40.686Z,-5.86
2018-02-25T04:16:40.765Z,-6.02
2018-02-25T04:17:40.448Z,-5.92
2018-02-25T04:18:40.713Z,-5.84
2018-02-25T04:19:40.463Z,-5.84
2018-02-25T04:20:40.733Z,-5.86
2018-02-25T04:21:40.479Z,-5.9
2018-02-25T04:22:40.736Z,-5.79
2018-02-25T04:23:40.492Z,-5.68
2018-02-25T04:24:40.753Z,-5.82
2018-02-25T04:25:40.757Z,-5.9
2018-02-25T04:26:40.508Z,-5.81
2018-02-25T04:27:40.516Z,-5.82
2018-02-25T04:28:40.780Z,-5.81
2018-02-25T04:29:40.531Z,-5.72
2018-02-25T04:30:40.541Z,-5.85
2018-02-25T04:31:40.596Z,-5.74
2018-02-25T04:32:40.304Z,-5.66
2018-02-25T04:33:40.815Z,-5.76
2018-02-25T04:34:40.818Z,-5.86
2018-02-25T04:35:40.830Z,-5.89
2018-02-25T04:36:40.847Z,-5.93
2018-02-25T04:37:40.587Z,-5.86
2018-02-25T04:38:40.595Z,-6.08
2018-02-25T04:39:40.350Z,-5.99
2018-02-25T04:40:40.615Z,-6.02
2018-02-25T04:41:40.870Z,-5.97
2018-02-25T04:42:40.893Z,-5.93
2018-02-25T04:43:40.889Z,-6.03
2018-02-25T04:44:40.635Z,-6.02
2018-02-25T04:45:40.900Z,-5.93
2018-02-25T04:46:40.953Z,-5.95
2018-02-25T04:47:40.657Z,-6.14
2018-02-25T04:48:40.412Z,-6.13
2018-02-25T04:49:40.936Z,-6.08
2018-02-25T04:50:40.945Z,-6.15
2018-02-25T04:51:40.941Z,-6.17
2018-02-25T04:52:40.711Z,-6.07
2018-02-25T04:53:40.702Z,-6.13
2018-02-25T04:54:40.707Z,-6.15
2018-02-25T04:55:40.463Z,-6.07
2018-02-25T04:56:40.728Z,-6.03
2018-02-25T04:57:40.984Z,-6.03
2018-02-25T04:58:40.739Z,-5.96
2018-02-25T04:59:40.999Z,-5.96
2018-02-25T05:00:41.031Z,-5.95
2018-02-25T05:01:41.013Z,-6.14
2018-02-25T05:02:40.515Z,-6.03
2018-02-25T05:03:40.569Z,-6.14
2018-02-25T05:04:40.777Z,-6.15
2018-02-25T05:05:41.045Z,-6.15
2018-02-25T05:06:41.050Z,-6.11
2018-02-25T05:07:40.801Z,-6.1
2018-02-25T05:08:41.068Z,-6.11
2018-02-25T05:09:41.067Z,-6.08
2018-02-25T05:10:41.073Z,-6.08
2018-02-25T05:11:41.083Z,-6
2018-02-25T05:12:41.096Z,-5.95
2018-02-25T05:13:41.110Z,-6.1
2018-02-25T05:14:40.603Z,-6.13
2018-02-25T05:15:41.118Z,-6.07
2018-02-25T05:16:41.118Z,-6.07
2018-02-25T05:17:41.122Z,-6.15
2018-02-25T05:18:40.927Z,-6.1
2018-02-25T05:19:40.879Z,-6.11
2018-02-25T05:20:40.893Z,-6.17
2018-02-25T05:21:41.151Z,-6.02
2018-02-25T05:22:40.922Z,-6.05
2018-02-25T05:23:41.161Z,-6.29
2018-02-25T05:24:41.169Z,-6.32
2018-02-25T05:25:41.187Z,-6.21
2018-02-25T05:26:41.188Z,-6.18
2018-02-25T05:27:40.944Z,-6.14
2018-02-25T05:28:40.945Z,-6.17
2018-02-25T05:29:40.954Z,-6.2
2018-02-25T05:30:41.210Z,-6.29
2018-02-25T05:31:41.218Z,-6.26
2018-02-25T05:32:40.982Z,-6.31
2018-02-25T05:33:41.280Z,-6.2
2018-02-25T05:34:41.239Z,-6.32
2018-02-25T05:35:41.251Z,-6.28
2018-02-25T05:36:41.002Z,-6.29
2018-02-25T05:37:41.258Z,-6.31
2018-02-25T05:38:40.760Z,-6.29
2018-02-25T05:39:41.329Z,-6.18
2018-02-25T05:40:41.027Z,-6.23
2018-02-25T05:41:41.283Z,-6.14
2018-02-25T05:42:41.291Z,-6.1
2018-02-25T05:43:41.302Z,-6.18
2018-02-25T05:44:41.307Z,-6.17
2018-02-25T05:45:41.326Z,-6.18
2018-02-25T05:46:40.814Z,-6.1
2018-02-25T05:47:41.342Z,-6.11
2018-02-25T05:48:40.887Z,-6.07
2018-02-25T05:49:41.102Z,-5.92
2018-02-25T05:50:41.356Z,-5.97
2018-02-25T05:51:41.362Z,-5.97
2018-02-25T05:52:41.105Z,-5.84
2018-02-25T05:53:41.373Z,-5.82
2018-02-25T05:54:41.379Z,-6.07
2018-02-25T05:55:41.396Z,-5.92
2018-02-25T05:56:41.133Z,-5.97
2018-02-25T05:57:41.397Z,-5.86
2018-02-25T05:58:41.166Z,-5.82
2018-02-25T05:59:41.156Z,-5.71
2018-02-25T06:00:41.420Z,-5.68
2018-02-25T06:01:41.427Z,-5.66
2018-02-25T06:02:41.180Z,-5.64
2018-02-25T06:03:41.494Z,-5.49
2018-02-25T06:04:40.940Z,-5.61
2018-02-25T06:05:41.199Z,-5.6
2018-02-25T06:06:40.965Z,-5.49
2018-02-25T06:07:41.215Z,-5.75
2018-02-25T06:08:41.218Z,-5.64
2018-02-25T06:09:41.230Z,-5.63
2018-02-25T06:10:41.502Z,-5.63
2018-02-25T06:11:41.238Z,-5.68
2018-02-25T06:12:41.504Z,-5.6
2018-02-25T06:13:41.256Z,-5.81
2018-02-25T06:14:41.267Z,-5.66
2018-02-25T06:15:41.271Z,-5.76
2018-02-25T06:16:41.276Z,-5.84
2018-02-25T06:17:41.291Z,-5.84
2018-02-25T06:18:41.356Z,-5.74
2018-02-25T06:19:41.552Z,-5.63
2018-02-25T06:20:41.307Z,-5.6
2018-02-25T06:21:41.569Z,-5.76
2018-02-25T06:22:41.574Z,-5.63
2018-02-25T06:23:41.589Z,-5.63
2018-02-25T06:24:41.592Z,-5.66
2018-02-25T06:25:41.599Z,-5.75
2018-02-25T06:26:41.353Z,-5.67
2018-02-25T06:27:41.612Z,-5.78
2018-02-25T06:28:41.621Z,-5.84
2018-02-25T06:29:41.628Z,-5.85
2018-02-25T06:30:41.379Z,-5.75
2018-02-25T06:31:41.132Z,-5.76
2018-02-25T06:32:41.395Z,-5.9
2018-02-25T06:33:41.404Z,-5.89
2018-02-25T06:34:41.666Z,-5.89
2018-02-25T06:35:41.468Z,-5.89
2018-02-25T06:36:41.680Z,-5.92
2018-02-25T06:37:41.688Z,-5.84
2018-02-25T06:38:41.689Z,-5.75
2018-02-25T06:39:41.445Z,-5.63
2018-02-25T06:40:41.508Z,-5.61
2018-02-25T06:41:41.714Z,-5.61
2018-02-25T06:42:41.477Z,-5.75
2018-02-25T06:43:41.728Z,-5.72
2018-02-25T06:44:41.740Z,-5.57
2018-02-25T06:45:41.748Z,-5.71
2018-02-25T06:46:41.757Z,-5.78
2018-02-25T06:47:41.774Z,-5.79
2018-02-25T06:48:41.763Z,-5.72
2018-02-25T06:49:41.542Z,-5.75
2018-02-25T06:50:41.335Z,-5.68
2018-02-25T06:51:41.790Z,-5.46
2018-02-25T06:52:41.799Z,-5.36
2018-02-25T06:53:41.804Z,-5.28
2018-02-25T06:54:41.555Z,-5.36
2018-02-25T06:55:41.819Z,-5.58
2018-02-25T06:56:41.575Z,-5.86
2018-02-25T06:57:41.832Z,-5.76
2018-02-25T06:58:41.591Z,-5.74
2018-02-25T06:59:41.612Z,-5.58
2018-02-25T07:00:41.601Z,-5.51
2018-02-25T07:01:41.608Z,-5.49
2018-02-25T07:02:41.359Z,-5.61
2018-02-25T07:03:41.632Z,-5.66
2018-02-25T07:04:41.640Z,-5.71
2018-02-25T07:05:41.945Z,-5.66
2018-02-25T07:06:41.902Z,-5.72
2018-02-25T07:07:41.916Z,-5.81
2018-02-25T07:08:41.410Z,-5.68
2018-02-25T07:09:41.927Z,-5.64
2018-02-25T07:10:41.425Z,-5.54
2018-02-25T07:11:41.690Z,-5.61
2018-02-25T07:12:41.950Z,-5.61
2018-02-25T07:13:41.968Z,-5.66
2018-02-25T07:14:41.711Z,-5.63
2018-02-25T07:15:41.974Z,-5.6
2018-02-25T07:16:41.723Z,-5.6
2018-02-25T07:17:41.988Z,-5.63
2018-02-25T07:18:41.999Z,-5.4
2018-02-25T07:19:42.009Z,-5.64
2018-02-25T07:20:42.060Z,-5.56
2018-02-25T07:21:41.764Z,-5.56
2018-02-25T07:22:42.022Z,-5.6
2018-02-25T07:23:42.030Z,-5.75
2018-02-25T07:24:41.783Z,-5.6
2018-02-25T07:25:42.040Z,-5.46
2018-02-25T07:26:42.127Z,-5.47
2018-02-25T07:27:41.807Z,-5.27
2018-02-25T07:28:42.066Z,-5.18
2018-02-25T07:29:41.823Z,-5.09
2018-02-25T07:30:41.882Z,-5.22
2018-02-25T07:31:42.094Z,-5.51
2018-02-25T07:32:41.844Z,-5.43
2018-02-25T07:33:41.851Z,-5.38
2018-02-25T07:34:42.120Z,-5.38
2018-02-25T07:35:41.868Z,-5.47
2018-02-25T07:36:41.877Z,-5.45
2018-02-25T07:37:42.137Z,-5.38
2018-02-25T07:38:41.904Z,-5.17
2018-02-25T07:39:42.156Z,-5.13
2018-02-25T07:40:42.170Z,-5
2018-02-25T07:41:42.177Z,-5.08
2018-02-25T07:42:42.188Z,-5.25
2018-02-25T07:43:42.194Z,-5.22
2018-02-25T07:44:42.274Z,-5.03
2018-02-25T07:45:41.999Z,-5
2018-02-25T07:46:42.211Z,-4.89
2018-02-25T07:47:42.216Z,-4.66
2018-02-25T07:48:42.227Z,-4.6
2018-02-25T07:49:41.979Z,-4.61
2018-02-25T07:50:41.738Z,-4.66
2018-02-25T07:51:42.000Z,-4.79
2018-02-25T07:52:42.300Z,-4.71
2018-02-25T07:53:42.011Z,-4.67
2018-02-25T07:54:42.268Z,-4.69
2018-02-25T07:55:42.285Z,-4.6
2018-02-25T07:56:42.291Z,-4.5
2018-02-25T07:57:42.301Z,-4.71
2018-02-25T07:58:42.312Z,-4.73
2018-02-25T07:59:42.316Z,-4.66
2018-02-25T08:00:42.071Z,-4.48
2018-02-25T08:01:42.336Z,-4.48
2018-02-25T08:02:42.136Z,-4.43
2018-02-25T08:03:42.355Z,-4.6
2018-02-25T08:04:42.099Z,-4.69
2018-02-25T08:05:42.124Z,-5.02
2018-02-25T08:06:42.373Z,-4.95
2018-02-25T08:07:42.129Z,-4.84
2018-02-25T08:08:42.390Z,-4.85
2018-02-25T08:09:42.403Z,-4.67
2018-02-25T08:10:42.421Z,-4.82
2018-02-25T08:11:42.418Z,-4.64
2018-02-25T08:12:42.193Z,-4.6
2018-02-25T08:13:42.455Z,-4.5
2018-02-25T08:14:42.453Z,-4.78
2018-02-25T08:15:42.197Z,-4.67
2018-02-25T08:16:41.946Z,-4.63
2018-02-25T08:17:42.004Z,-4.52
2018-02-25T08:18:42.469Z,-4.55
2018-02-25T08:19:42.230Z,-4.48
2018-02-25T08:20:42.493Z,-4.28
2018-02-25T08:21:42.242Z,-4.34
2018-02-25T08:22:42.253Z,-4.34
2018-02-25T08:23:42.514Z,-4.41
2018-02-25T08:24:42.270Z,-4.32
2018-02-25T08:25:42.524Z,-4.32
2018-02-25T08:26:42.280Z,-4.49
2018-02-25T08:27:42.288Z,-4.45
2018-02-25T08:28:42.555Z,-4.43
2018-02-25T08:29:42.560Z,-4.32
2018-02-25T08:30:42.569Z,-4.17
2018-02-25T08:31:42.574Z,-3.98
2018-02-25T08:32:42.383Z,-4.03
2018-02-25T08:33:42.597Z,-3.96
2018-02-25T08:34:42.604Z,-4.12
2018-02-25T08:35:42.106Z,-4.07
2018-02-25T08:36:42.445Z,-4.04
2018-02-25T08:37:42.380Z,-3.98
2018-02-25T08:38:42.642Z,-3.93
2018-02-25T08:39:42.393Z,-3.7
2018-02-25T08:40:42.653Z,-3.83
2018-02-25T08:41:42.412Z,-3.74
2018-02-25T08:42:42.417Z,-3.58
2018-02-25T08:43:42.679Z,-3.58
2018-02-25T08:44:42.690Z,-3.55
2018-02-25T08:45:42.699Z,-3.7
2018-02-25T08:46:42.709Z,-3.56
2018-02-25T08:47:42.776Z,-3.49
2018-02-25T08:48:42.728Z,-3.55
2018-02-25T08:49:42.743Z,-3.59
2018-02-25T08:50:42.742Z,-3.38
2018-02-25T08:51:42.754Z,-3.34
2018-02-25T08:52:42.757Z,-3.09
2018-02-25T08:53:42.788Z,-3.15
2018-02-25T08:54:42.525Z,-3.45
2018-02-25T08:55:42.784Z,-3.37
2018-02-25T08:56:42.794Z,-3.55
2018-02-25T08:57:42.805Z,-3.54
2018-02-25T08:58:42.810Z,-3.66
2018-02-25T08:59:42.826Z,-3.63
2018-02-25T09:00:42.579Z,-3.66
2018-02-25T09:01:42.840Z,-3.56
2018-02-25T09:02:42.390Z,-3.46
2018-02-25T09:03:42.863Z,-3.45
2018-02-25T09:04:42.614Z,-3.4
2018-02-25T09:05:42.880Z,-3.49
2018-02-25T09:06:42.375Z,-3.52
2018-02-25T09:07:42.905Z,-3.52
2018-02-25T09:08:42.394Z,-3.48
2018-02-25T09:09:42.655Z,-3.58
2018-02-25T09:10:42.921Z,-3.41
2018-02-25T09:11:42.679Z,-3.3
2018-02-25T09:12:42.788Z,-3.22
2018-02-25T09:13:42.959Z,-3.15
2018-02-25T09:14:42.698Z,-3.06
2018-02-25T09:15:42.722Z,-3.02
2018-02-25T09:16:42.726Z,-2.91
2018-02-25T09:17:42.777Z,-2.6
2018-02-25T09:18:42.999Z,-2.58
2018-02-25T09:19:42.492Z,-2.56
2018-02-25T09:20:43.005Z,-2.73
2018-02-25T09:21:43.020Z,-2.69
2018-02-25T09:22:43.024Z,-2.69
2018-02-25T09:23:42.782Z,-2.59
2018-02-25T09:24:42.791Z,-2.6
2018-02-25T09:25:43.104Z,-2.7
2018-02-25T09:26:43.067Z,-2.52
2018-02-25T09:27:42.820Z,-2.58
2018-02-25T09:28:43.084Z,-2.66
2018-02-25T09:29:42.838Z,-2.69
2018-02-25T09:30:42.609Z,-2.73
2018-02-25T09:31:43.128Z,-2.66
2018-02-25T09:32:43.180Z,-2.56
2018-02-25T09:33:43.134Z,-2.47
2018-02-25T09:34:43.141Z,-2.48
2018-02-25T09:35:43.148Z,-2.59
2018-02-25T09:36:43.162Z,-2.47
2018-02-25T09:37:43.166Z,-2.6
2018-02-25T09:38:43.198Z,-2.38
2018-02-25T09:39:43.190Z,-2.37
2018-02-25T09:40:42.940Z,-2.45
2018-02-25T09:41:42.952Z,-2.56
2018-02-25T09:42:43.223Z,-2.34
2018-02-25T09:43:43.240Z,-2.15
2018-02-25T09:44:42.984Z,-2.22
2018-02-25T09:45:42.737Z,-2.05
2018-02-25T09:46:43.008Z,-2.19
2018-02-25T09:47:43.060Z,-2.28
2018-02-25T09:48:43.276Z,-2.22
2018-02-25T09:49:43.287Z,-2.12
2018-02-25T09:50:43.297Z,-2.12
2018-02-25T09:51:43.063Z,-2.01
2018-02-25T09:52:43.325Z,-1.94
2018-02-25T09:53:43.328Z,-1.83
2018-02-25T09:54:43.080Z,-1.65
2018-02-25T09:55:43.170Z,-1.54
2018-02-25T09:56:43.106Z,-1.62
2018-02-25T09:57:43.417Z,-1.62
2018-02-25T09:58:43.129Z,-1.64
2018-02-25T09:59:43.138Z,-1.76
2018-02-25T10:00:43.402Z,-1.79
2018-02-25T10:01:43.407Z,-2.04
2018-02-25T10:02:43.176Z,-2.08
2018-02-25T10:03:43.436Z,-2.04
2018-02-25T10:04:43.437Z,-1.98
2018-02-25T10:05:43.191Z,-1.72
2018-02-25T10:06:43.217Z,-1.72
2018-02-25T10:07:43.214Z,-1.79
2018-02-25T10:08:43.232Z,-1.68
2018-02-25T10:09:43.494Z,-1.68
2018-02-25T10:10:43.500Z,-1.47
2018-02-25T10:11:43.005Z,-1.46
2018-02-25T10:12:43.570Z,-1.38
2018-02-25T10:13:43.533Z,-1.47
2018-02-25T10:14:43.289Z,-1.35
2018-02-25T10:15:43.297Z,-1.15
2018-02-25T10:16:43.558Z,-1.26
2018-02-25T10:17:43.586Z,-1.12
2018-02-25T10:18:43.587Z,-1.12
2018-02-25T10:19:43.338Z,-1.25
2018-02-25T10:20:43.347Z,-1.09
2018-02-25T10:21:43.623Z,-1.27
2018-02-25T10:22:43.632Z,-1.33
2018-02-25T10:23:43.384Z,-1.37
2018-02-25T10:24:43.391Z,-1.33
2018-02-25T10:25:43.403Z,-1.11
2018-02-25T10:26:43.414Z,-1.2
2018-02-25T10:27:43.622Z,-1.09
2018-02-25T10:28:43.450Z,-1.17
2018-02-25T10:29:43.447Z,-1.01
2018-02-25T10:30:43.459Z,-0.85
2018-02-25T10:31:43.727Z,-0.7
2018-02-25T10:32:43.742Z,-0.36
2018-02-25T10:33:43.496Z,-0.18
2018-02-25T10:34:43.512Z,0.04
2018-02-25T10:35:43.270Z,0.25
2018-02-25T10:36:43.536Z,0.39
2018-02-25T10:37:44.550Z,0.55
2018-02-25T10:38:43.854Z,0.6
2018-02-25T10:39:43.847Z,0.86
2018-02-25T10:40:43.342Z,1.05
2018-02-25T10:41:43.356Z,1.26
2018-02-25T10:42:43.929Z,1.45
2018-02-25T10:43:43.641Z,1.34
2018-02-25T10:44:43.409Z,1.41
2018-02-25T10:45:43.675Z,1.44
2018-02-25T10:46:43.439Z,1.8
2018-02-25T10:47:44.062Z,2.2
2018-02-25T10:48:43.729Z,2.44
2018-02-25T10:49:43.754Z,2.65
2018-02-25T10:50:43.801Z,2.83
2018-02-25T10:51:43.522Z,2.85
2018-02-25T10:52:43.542Z,2.71
2018-02-25T10:53:43.813Z,2.97
2018-02-25T10:54:43.578Z,3.11
2018-02-25T10:55:43.857Z,3.6
2018-02-25T10:56:43.865Z,3.84
2018-02-25T10:57:43.888Z,3.87
2018-02-25T10:58:43.653Z,4.26
2018-02-25T10:59:43.927Z,4.02
2018-02-25T11:00:44.250Z,4.16
2018-02-25T11:01:44.225Z,4.19
2018-02-25T11:02:44.236Z,3.98
2018-02-25T11:03:44.004Z,4.17
2018-02-25T11:04:43.774Z,4.01
2018-02-25T11:05:44.302Z,3.77
2018-02-25T11:06:44.322Z,3.83
2018-02-25T11:07:44.090Z,4.16
2018-02-25T11:08:44.108Z,4.41
2018-02-25T11:09:44.388Z,4.19
2018-02-25T11:10:44.401Z,4.23
2018-02-25T11:11:44.434Z,4.17
2018-02-25T11:12:44.443Z,4.31
2018-02-25T11:13:44.470Z,4.3
2018-02-25T11:14:44.230Z,4.74
2018-02-25T11:15:44.561Z,4.99
2018-02-25T11:16:44.531Z,5.02
2018-02-25T11:17:44.299Z,5.12
2018-02-25T11:18:44.348Z,5.15
2018-02-25T11:19:44.600Z,5.44
2018-02-25T11:20:44.651Z,5.64
2018-02-25T11:21:44.640Z,5.72
2018-02-25T11:22:44.153Z,5.87
2018-02-25T11:23:44.686Z,6.09
2018-02-25T11:24:44.705Z,6.24
2018-02-25T11:25:44.319Z,6.07
2018-02-25T11:26:44.756Z,6.28
2018-02-25T11:27:44.773Z,6.67
2018-02-25T11:28:44.540Z,6.93
2018-02-25T11:29:44.814Z,6.95
2018-02-25T11:30:44.898Z,6.92
2018-02-25T11:31:45.146Z,7
2018-02-25T11:32:44.882Z,7.11
2018-02-25T11:33:44.400Z,7.28
2018-02-25T11:34:44.679Z,7.23
2018-02-25T11:35:44.703Z,7.58
2018-02-25T11:36:45.001Z,7.47
2018-02-25T11:37:44.757Z,7.47
2018-02-25T11:38:45.032Z,7.33
2018-02-25T11:39:45.049Z,7.58
2018-02-25T11:40:44.671Z,7.91
2018-02-25T11:41:44.841Z,8.1
2018-02-25T11:42:45.166Z,8.06
2018-02-25T11:43:44.638Z,7.85
2018-02-25T11:44:44.973Z,7.39
2018-02-25T11:45:45.245Z,7.42
2018-02-25T11:46:44.966Z,7.47
2018-02-25T11:47:45.295Z,7.57
2018-02-25T11:48:45.280Z,7.73
2018-02-25T11:49:45.293Z,7.98
2018-02-25T11:50:45.315Z,8.38
2018-02-25T11:51:45.098Z,8.26
2018-02-25T11:52:45.398Z,8.08
2018-02-25T11:53:45.403Z,8.24
2018-02-25T11:54:45.162Z,8.33
2018-02-25T11:55:45.443Z,8.6
2018-02-25T11:56:45.328Z,8.78
2018-02-25T11:57:45.240Z,8.64
2018-02-25T11:58:45.523Z,8.61
2018-02-25T11:59:45.542Z,8.27
2018-02-25T12:00:45.585Z,7.82
2018-02-25T12:01:45.388Z,7.88
2018-02-25T12:02:45.370Z,7.93
2018-02-25T12:03:45.140Z,8.45
2018-02-25T12:04:45.666Z,8.88
2018-02-25T12:05:45.184Z,9.13
2018-02-25T12:06:45.722Z,9.29
2018-02-25T12:07:45.744Z,9.1
2018-02-25T12:08:45.513Z,8.92
2018-02-25T12:09:45.539Z,9.23
2018-02-25T12:10:45.565Z,9.61
2018-02-25T12:11:45.883Z,9.92
2018-02-25T12:12:45.616Z,10.26
2018-02-25T12:13:45.641Z,10.33
2018-02-25T12:14:45.919Z,9.37
2018-02-25T12:15:45.687Z,9.47
2018-02-25T12:16:45.768Z,9.66
2018-02-25T12:17:45.743Z,9.82
2018-02-25T12:18:46.026Z,9.98
2018-02-25T12:19:45.797Z,9.77
2018-02-25T12:20:45.817Z,10.04
2018-02-25T12:21:45.846Z,10.72
2018-02-25T12:22:45.876Z,10.33
2018-02-25T12:23:45.898Z,10.26
2018-02-25T12:24:45.923Z,10.37
2018-02-25T12:25:46.206Z,10.72
2018-02-25T12:26:45.977Z,10.92
2018-02-25T12:27:46.258Z,11.15
2018-02-25T12:28:46.283Z,11.51
2018-02-25T12:29:46.054Z,11.37
2018-02-25T12:30:46.341Z,11.66
2018-02-25T12:31:46.448Z,11.07
2018-02-25T12:32:46.397Z,11.18
2018-02-25T12:33:46.163Z,11.37
2018-02-25T12:34:46.448Z,11.18
2018-02-25T12:35:46.217Z,10.76
2018-02-25T12:36:46.498Z,11.08
2018-02-25T12:37:46.273Z,10.76
2018-02-25T12:38:46.551Z,10.84
2018-02-25T12:39:46.634Z,11.3
2018-02-25T12:40:46.101Z,11.95
2018-02-25T12:41:46.425Z,11.99
2018-02-25T12:42:46.656Z,10.94
2018-02-25T12:43:46.427Z,10.92
2018-02-25T12:44:46.462Z,10.84
2018-02-25T12:45:46.744Z,11.23
2018-02-25T12:46:46.764Z,11.9
2018-02-25T12:47:46.831Z,11.5
2018-02-25T12:48:46.814Z,11.48
2018-02-25T12:49:46.844Z,11.25
2018-02-25T12:50:46.613Z,11.55
2018-02-25T12:51:46.388Z,11.95
2018-02-25T12:52:46.668Z,12
2018-02-25T12:53:46.956Z,12.31
2018-02-25T12:54:46.979Z,12.46
2018-02-25T12:55:46.759Z,11.7
2018-02-25T12:56:46.840Z,11.48
2018-02-25T12:57:47.061Z,11.69
2018-02-25T12:58:46.838Z,12.49